sensor_id;sensor_type;location;lat;lon;timestamp;temperature;humidity
19261;DHT22;9764;48.114;11.670;2022-12-18T00:00:10;18.60;87.60
19261;DHT22;9764;48.114;11.670;2022-12-18T00:02:43;18.60;87.60
19261;DHT22;9764;48.114;11.670;2022-12-18T00:05:13;18.70;87.70
19261;DHT22;9764;48.114;11.670;2022-12-18T00:07:41;18.70;87.70
19261;DHT22;9764;48.114;11.670;2022-12-18T00:10:10;18.70;87.60
19261;DHT22;9764;48.114;11.670;2022-12-18T00:12:44;18.60;87.60
19261;DHT22;9764;48.114;11.670;2022-12-18T00:15:12;18.60;87.60
19261;DHT22;9764;48.114;11.670;2022-12-18T00:17:44;18.60;87.50
19261;DHT22;9764;48.114;11.670;2022-12-18T00:20:15;18.70;87.70
19261;DHT22;9764;48.114;11.670;2022-12-18T00:22:47;18.70;87.60
19261;DHT22;9764;48.114;11.670;2022-12-18T00:25:16;18.60;87.50
19261;DHT22;9764;48.114;11.670;2022-12-18T00:27:44;18.70;87.60
19261;DHT22;9764;48.114;11.670;2022-12-18T00:30:14;18.70;87.60
19261;DHT22;9764;48.114;11.670;2022-12-18T00:32:42;18.70;87.60
19261;DHT22;9764;48.114;11.670;2022-12-18T00:35:13;18.60;87.60
19261;DHT22;9764;48.114;11.670;2022-12-18T00:37:42;18.60;87.60
19261;DHT22;9764;48.114;11.670;2022-12-18T00:40:12;18.60;88.40
19261;DHT22;9764;48.114;11.670;2022-12-18T00:42:40;18.60;87.80
19261;DHT22;9764;48.114;11.670;2022-12-18T00:45:27;18.60;87.70
19261;DHT22;9764;48.114;11.670;2022-12-18T00:47:56;18.60;87.60
19261;DHT22;9764;48.114;11.670;2022-12-18T00:50:26;18.60;87.60
19261;DHT22;9764;48.114;11.670;2022-12-18T00:52:54;18.60;87.60
19261;DHT22;9764;48.114;11.670;2022-12-18T00:55:23;18.60;87.60
19261;DHT22;9764;48.114;11.670;2022-12-18T00:57:51;18.60;87.60
19261;DHT22;9764;48.114;11.670;2022-12-18T01:00:21;18.60;87.60
19261;DHT22;9764;48.114;11.670;2022-12-18T01:02:50;18.60;87.60
19261;DHT22;9764;48.114;11.670;2022-12-18T01:05:19;18.60;87.60
19261;DHT22;9764;48.114;11.670;2022-12-18T01:07:49;18.60;87.60
19261;DHT22;9764;48.114;11.670;2022-12-18T01:10:19;18.60;87.50
19261;DHT22;9764;48.114;11.670;2022-12-18T01:12:47;18.60;87.60
19261;DHT22;9764;48.114;11.670;2022-12-18T01:15:18;18.60;87.60
19261;DHT22;9764;48.114;11.670;2022-12-18T01:17:46;18.60;87.60
19261;DHT22;9764;48.114;11.670;2022-12-18T01:20:15;18.60;87.60
19261;DHT22;9764;48.114;11.670;2022-12-18T01:22:45;18.60;87.60
19261;DHT22;9764;48.114;11.670;2022-12-18T01:25:15;18.60;87.60
19261;DHT22;9764;48.114;11.670;2022-12-18T01:27:43;18.50;87.60
19261;DHT22;9764;48.114;11.670;2022-12-18T01:30:12;18.60;87.60
19261;DHT22;9764;48.114;11.670;2022-12-18T01:32:40;18.50;87.60
19261;DHT22;9764;48.114;11.670;2022-12-18T01:35:09;18.50;87.60
19261;DHT22;9764;48.114;11.670;2022-12-18T01:37:37;18.50;88.40
19261;DHT22;9764;48.114;11.670;2022-12-18T01:40:07;18.60;87.60
19261;DHT22;9764;48.114;11.670;2022-12-18T01:42:37;18.50;87.60
19261;DHT22;9764;48.114;11.670;2022-12-18T01:45:21;18.50;87.50
19261;DHT22;9764;48.114;11.670;2022-12-18T01:47:52;18.50;87.50
19261;DHT22;9764;48.114;11.670;2022-12-18T01:50:23;18.50;87.50
19261;DHT22;9764;48.114;11.670;2022-12-18T01:52:55;18.60;87.50
19261;DHT22;9764;48.114;11.670;2022-12-18T01:55:27;18.60;87.50
19261;DHT22;9764;48.114;11.670;2022-12-18T01:57:59;18.50;87.40
19261;DHT22;9764;48.114;11.670;2022-12-18T02:00:28;18.60;87.40
19261;DHT22;9764;48.114;11.670;2022-12-18T02:02:57;18.60;87.50
19261;DHT22;9764;48.114;11.670;2022-12-18T02:05:33;18.60;87.50
19261;DHT22;9764;48.114;11.670;2022-12-18T02:08:09;18.60;87.50
19261;DHT22;9764;48.114;11.670;2022-12-18T02:10:46;18.50;87.40
19261;DHT22;9764;48.114;11.670;2022-12-18T02:13:29;18.50;87.40
19261;DHT22;9764;48.114;11.670;2022-12-18T02:16:01;18.50;87.40
19261;DHT22;9764;48.114;11.670;2022-12-18T02:18:37;18.50;87.40
19261;DHT22;9764;48.114;11.670;2022-12-18T02:21:14;18.50;87.50
19261;DHT22;9764;48.114;11.670;2022-12-18T02:23:50;18.50;87.30
19261;DHT22;9764;48.114;11.670;2022-12-18T02:26:26;18.50;87.40
19261;DHT22;9764;48.114;11.670;2022-12-18T02:29:00;18.50;87.40
19261;DHT22;9764;48.114;11.670;2022-12-18T02:31:34;18.50;87.40
19261;DHT22;9764;48.114;11.670;2022-12-18T02:34:06;18.50;87.30
19261;DHT22;9764;48.114;11.670;2022-12-18T02:36:40;18.50;87.30
19261;DHT22;9764;48.114;11.670;2022-12-18T02:39:12;18.50;87.30
19261;DHT22;9764;48.114;11.670;2022-12-18T02:41:55;18.50;87.30
19261;DHT22;9764;48.114;11.670;2022-12-18T02:44:25;18.50;87.30
19261;DHT22;9764;48.114;11.670;2022-12-18T02:46:54;18.50;87.30
19261;DHT22;9764;48.114;11.670;2022-12-18T02:49:31;18.50;87.40
19261;DHT22;9764;48.114;11.670;2022-12-18T02:52:11;18.50;88.20
19261;DHT22;9764;48.114;11.670;2022-12-18T02:54:51;18.50;87.30
19261;DHT22;9764;48.114;11.670;2022-12-18T02:57:31;18.50;87.30
19261;DHT22;9764;48.114;11.670;2022-12-18T03:00:05;18.50;87.30
19261;DHT22;9764;48.114;11.670;2022-12-18T03:02:39;18.50;87.30
19261;DHT22;9764;48.114;11.670;2022-12-18T03:05:14;18.50;87.30
19261;DHT22;9764;48.114;11.670;2022-12-18T03:07:47;18.50;87.20
19261;DHT22;9764;48.114;11.670;2022-12-18T03:10:21;18.50;87.20
19261;DHT22;9764;48.114;11.670;2022-12-18T03:12:56;18.50;87.20
19261;DHT22;9764;48.114;11.670;2022-12-18T03:15:30;18.50;87.20
19261;DHT22;9764;48.114;11.670;2022-12-18T03:18:10;18.50;87.20
19261;DHT22;9764;48.114;11.670;2022-12-18T03:20:41;18.60;87.90
19261;DHT22;9764;48.114;11.670;2022-12-18T03:23:16;18.50;87.20
19261;DHT22;9764;48.114;11.670;2022-12-18T03:25:52;18.50;87.20
19261;DHT22;9764;48.114;11.670;2022-12-18T03:28:26;18.50;87.20
19261;DHT22;9764;48.114;11.670;2022-12-18T03:31:02;18.50;87.20
19261;DHT22;9764;48.114;11.670;2022-12-18T03:33:37;18.50;87.20
19261;DHT22;9764;48.114;11.670;2022-12-18T03:36:07;18.50;87.20
19261;DHT22;9764;48.114;11.670;2022-12-18T03:38:37;18.50;87.20
19261;DHT22;9764;48.114;11.670;2022-12-18T03:41:14;18.50;87.20
19261;DHT22;9764;48.114;11.670;2022-12-18T03:44:10;18.50;87.20
19261;DHT22;9764;48.114;11.670;2022-12-18T03:46:48;18.50;87.20
19261;DHT22;9764;48.114;11.670;2022-12-18T03:49:22;18.50;87.20
19261;DHT22;9764;48.114;11.670;2022-12-18T03:51:58;18.50;87.20
19261;DHT22;9764;48.114;11.670;2022-12-18T03:54:30;18.50;87.20
19261;DHT22;9764;48.114;11.670;2022-12-18T03:57:11;18.50;87.10
19261;DHT22;9764;48.114;11.670;2022-12-18T03:59:43;18.50;87.10
19261;DHT22;9764;48.114;11.670;2022-12-18T04:02:15;18.50;87.10
19261;DHT22;9764;48.114;11.670;2022-12-18T04:04:47;18.50;87.00
19261;DHT22;9764;48.114;11.670;2022-12-18T04:07:17;18.50;87.10
19261;DHT22;9764;48.114;11.670;2022-12-18T04:09:47;18.50;87.00
19261;DHT22;9764;48.114;11.670;2022-12-18T04:12:17;18.50;87.00
19261;DHT22;9764;48.114;11.670;2022-12-18T04:14:48;18.50;87.00
19261;DHT22;9764;48.114;11.670;2022-12-18T04:17:16;18.50;86.90
19261;DHT22;9764;48.114;11.670;2022-12-18T04:19:46;18.50;87.00
19261;DHT22;9764;48.114;11.670;2022-12-18T04:22:14;18.50;87.10
19261;DHT22;9764;48.114;11.670;2022-12-18T04:24:47;18.50;87.10
19261;DHT22;9764;48.114;11.670;2022-12-18T04:27:23;18.40;87.00
19261;DHT22;9764;48.114;11.670;2022-12-18T04:29:53;18.50;87.00
19261;DHT22;9764;48.114;11.670;2022-12-18T04:32:22;18.50;87.00
19261;DHT22;9764;48.114;11.670;2022-12-18T04:34:51;18.50;87.00
19261;DHT22;9764;48.114;11.670;2022-12-18T04:37:19;18.50;87.00
19261;DHT22;9764;48.114;11.670;2022-12-18T04:39:49;18.50;87.00
19261;DHT22;9764;48.114;11.670;2022-12-18T04:42:27;18.50;86.80
19261;DHT22;9764;48.114;11.670;2022-12-18T04:44:57;18.50;86.80
19261;DHT22;9764;48.114;11.670;2022-12-18T04:47:25;18.50;86.90
19261;DHT22;9764;48.114;11.670;2022-12-18T04:49:53;18.50;86.90
19261;DHT22;9764;48.114;11.670;2022-12-18T04:52:21;18.50;86.90
19261;DHT22;9764;48.114;11.670;2022-12-18T04:54:53;18.50;86.90
19261;DHT22;9764;48.114;11.670;2022-12-18T04:57:21;18.40;86.90
19261;DHT22;9764;48.114;11.670;2022-12-18T04:59:49;18.40;86.90
19261;DHT22;9764;48.114;11.670;2022-12-18T05:02:19;18.40;86.90
19261;DHT22;9764;48.114;11.670;2022-12-18T05:04:47;18.50;86.90
19261;DHT22;9764;48.114;11.670;2022-12-18T05:07:16;18.50;86.90
19261;DHT22;9764;48.114;11.670;2022-12-18T05:09:44;18.50;86.80
19261;DHT22;9764;48.114;11.670;2022-12-18T05:12:12;18.50;86.80
19261;DHT22;9764;48.114;11.670;2022-12-18T05:14:40;18.50;86.80
19261;DHT22;9764;48.114;11.670;2022-12-18T05:17:09;18.50;86.80
19261;DHT22;9764;48.114;11.670;2022-12-18T05:19:42;18.50;86.70
19261;DHT22;9764;48.114;11.670;2022-12-18T05:22:10;18.50;86.70
19261;DHT22;9764;48.114;11.670;2022-12-18T05:24:39;18.50;86.70
19261;DHT22;9764;48.114;11.670;2022-12-18T05:27:08;18.50;86.70
19261;DHT22;9764;48.114;11.670;2022-12-18T05:29:36;18.50;86.80
19261;DHT22;9764;48.114;11.670;2022-12-18T05:32:04;18.50;86.80
19261;DHT22;9764;48.114;11.670;2022-12-18T05:34:32;18.50;86.80
19261;DHT22;9764;48.114;11.670;2022-12-18T05:37:02;18.50;86.70
19261;DHT22;9764;48.114;11.670;2022-12-18T05:39:30;18.50;86.80
19261;DHT22;9764;48.114;11.670;2022-12-18T05:41:59;18.50;86.70
19261;DHT22;9764;48.114;11.670;2022-12-18T05:44:27;18.50;86.70
19261;DHT22;9764;48.114;11.670;2022-12-18T05:46:56;18.50;86.70
19261;DHT22;9764;48.114;11.670;2022-12-18T05:49:24;18.50;86.70
19261;DHT22;9764;48.114;11.670;2022-12-18T05:51:52;18.60;86.70
19261;DHT22;9764;48.114;11.670;2022-12-18T05:54:22;18.60;86.70
19261;DHT22;9764;48.114;11.670;2022-12-18T05:56:50;18.60;86.70
19261;DHT22;9764;48.114;11.670;2022-12-18T05:59:18;18.60;86.70
19261;DHT22;9764;48.114;11.670;2022-12-18T06:01:47;18.60;86.70
19261;DHT22;9764;48.114;11.670;2022-12-18T06:04:15;18.60;86.70
19261;DHT22;9764;48.114;11.670;2022-12-18T06:06:44;18.60;86.70
19261;DHT22;9764;48.114;11.670;2022-12-18T06:09:12;18.60;86.70
19261;DHT22;9764;48.114;11.670;2022-12-18T06:11:42;18.60;86.70
19261;DHT22;9764;48.114;11.670;2022-12-18T06:14:10;18.60;86.70
19261;DHT22;9764;48.114;11.670;2022-12-18T06:16:38;18.60;86.60
19261;DHT22;9764;48.114;11.670;2022-12-18T06:19:06;18.60;86.60
19261;DHT22;9764;48.114;11.670;2022-12-18T06:21:35;18.60;86.60
19261;DHT22;9764;48.114;11.670;2022-12-18T06:24:03;18.60;86.60
19261;DHT22;9764;48.114;11.670;2022-12-18T06:26:31;18.60;86.60
19261;DHT22;9764;48.114;11.670;2022-12-18T06:29:01;18.60;86.60
19261;DHT22;9764;48.114;11.670;2022-12-18T06:31:29;18.60;86.60
19261;DHT22;9764;48.114;11.670;2022-12-18T06:33:58;18.60;86.50
19261;DHT22;9764;48.114;11.670;2022-12-18T06:36:30;18.60;86.50
19261;DHT22;9764;48.114;11.670;2022-12-18T06:38:58;18.60;86.60
19261;DHT22;9764;48.114;11.670;2022-12-18T06:41:27;18.60;86.60
19261;DHT22;9764;48.114;11.670;2022-12-18T06:43:55;18.60;86.60
19261;DHT22;9764;48.114;11.670;2022-12-18T06:46:27;18.60;86.60
19261;DHT22;9764;48.114;11.670;2022-12-18T06:48:55;18.60;86.60
19261;DHT22;9764;48.114;11.670;2022-12-18T06:51:24;18.50;86.60
19261;DHT22;9764;48.114;11.670;2022-12-18T06:53:53;18.60;86.60
19261;DHT22;9764;48.114;11.670;2022-12-18T06:56:21;18.60;86.60
19261;DHT22;9764;48.114;11.670;2022-12-18T06:58:49;18.60;86.50
19261;DHT22;9764;48.114;11.670;2022-12-18T07:01:18;18.60;86.50
19261;DHT22;9764;48.114;11.670;2022-12-18T07:03:52;18.60;86.50
19261;DHT22;9764;48.114;11.670;2022-12-18T07:06:22;18.50;86.50
19261;DHT22;9764;48.114;11.670;2022-12-18T07:08:51;18.50;86.60
19261;DHT22;9764;48.114;11.670;2022-12-18T07:11:20;18.50;86.60
19261;DHT22;9764;48.114;11.670;2022-12-18T07:13:48;18.50;86.60
19261;DHT22;9764;48.114;11.670;2022-12-18T07:16:18;18.60;86.50
19261;DHT22;9764;48.114;11.670;2022-12-18T07:18:53;18.60;86.50
19261;DHT22;9764;48.114;11.670;2022-12-18T07:21:23;18.60;86.50
19261;DHT22;9764;48.114;11.670;2022-12-18T07:23:52;18.60;86.50
19261;DHT22;9764;48.114;11.670;2022-12-18T07:26:21;18.60;86.50
19261;DHT22;9764;48.114;11.670;2022-12-18T07:28:50;18.60;86.40
19261;DHT22;9764;48.114;11.670;2022-12-18T07:31:20;18.60;86.50
19261;DHT22;9764;48.114;11.670;2022-12-18T07:33:50;18.60;86.50
19261;DHT22;9764;48.114;11.670;2022-12-18T07:36:23;18.60;86.60
19261;DHT22;9764;48.114;11.670;2022-12-18T07:38:51;18.60;86.70
19261;DHT22;9764;48.114;11.670;2022-12-18T07:41:20;18.60;86.70
19261;DHT22;9764;48.114;11.670;2022-12-18T07:43:49;18.60;86.70
19261;DHT22;9764;48.114;11.670;2022-12-18T07:46:17;18.60;86.70
19261;DHT22;9764;48.114;11.670;2022-12-18T07:48:45;18.60;86.60
19261;DHT22;9764;48.114;11.670;2022-12-18T07:51:17;18.60;86.70
19261;DHT22;9764;48.114;11.670;2022-12-18T07:53:47;18.60;86.70
19261;DHT22;9764;48.114;11.670;2022-12-18T07:56:19;18.60;86.70
19261;DHT22;9764;48.114;11.670;2022-12-18T07:58:57;18.60;86.70
19261;DHT22;9764;48.114;11.670;2022-12-18T08:01:28;18.60;86.70
19261;DHT22;9764;48.114;11.670;2022-12-18T08:03:57;18.60;86.70
19261;DHT22;9764;48.114;11.670;2022-12-18T08:06:26;18.60;86.60
19261;DHT22;9764;48.114;11.670;2022-12-18T08:08:56;18.60;86.70
19261;DHT22;9764;48.114;11.670;2022-12-18T08:11:26;18.60;86.70
19261;DHT22;9764;48.114;11.670;2022-12-18T08:13:55;18.60;86.70
19261;DHT22;9764;48.114;11.670;2022-12-18T08:16:23;18.60;86.70
19261;DHT22;9764;48.114;11.670;2022-12-18T08:18:52;18.60;86.60
19261;DHT22;9764;48.114;11.670;2022-12-18T08:21:23;18.60;86.70
19261;DHT22;9764;48.114;11.670;2022-12-18T08:23:52;18.60;86.70
19261;DHT22;9764;48.114;11.670;2022-12-18T08:26:23;18.60;86.70
19261;DHT22;9764;48.114;11.670;2022-12-18T08:28:53;18.60;86.70
19261;DHT22;9764;48.114;11.670;2022-12-18T08:31:22;18.60;86.70
19261;DHT22;9764;48.114;11.670;2022-12-18T08:33:52;18.60;86.70
19261;DHT22;9764;48.114;11.670;2022-12-18T08:36:22;18.60;86.60
19261;DHT22;9764;48.114;11.670;2022-12-18T08:38:51;18.60;86.60
19261;DHT22;9764;48.114;11.670;2022-12-18T08:41:21;18.60;86.60
19261;DHT22;9764;48.114;11.670;2022-12-18T08:43:49;18.70;86.70
19261;DHT22;9764;48.114;11.670;2022-12-18T08:46:37;18.70;86.70
19261;DHT22;9764;48.114;11.670;2022-12-18T08:49:07;18.70;86.60
19261;DHT22;9764;48.114;11.670;2022-12-18T08:51:35;18.60;86.50
19261;DHT22;9764;48.114;11.670;2022-12-18T08:54:05;18.60;87.40
19261;DHT22;9764;48.114;11.670;2022-12-18T08:56:35;18.70;86.70
19261;DHT22;9764;48.114;11.670;2022-12-18T08:59:03;18.70;86.60
19261;DHT22;9764;48.114;11.670;2022-12-18T09:01:32;18.70;86.50
19261;DHT22;9764;48.114;11.670;2022-12-18T09:04:01;18.70;86.60
19261;DHT22;9764;48.114;11.670;2022-12-18T09:06:30;18.70;86.50
19261;DHT22;9764;48.114;11.670;2022-12-18T09:08:59;18.60;86.50
19261;DHT22;9764;48.114;11.670;2022-12-18T09:11:28;18.70;86.50
19261;DHT22;9764;48.114;11.670;2022-12-18T09:14:00;18.70;87.30
19261;DHT22;9764;48.114;11.670;2022-12-18T09:16:28;18.70;86.40
19261;DHT22;9764;48.114;11.670;2022-12-18T09:18:59;18.70;86.50
19261;DHT22;9764;48.114;11.670;2022-12-18T09:21:31;18.70;86.50
19261;DHT22;9764;48.114;11.670;2022-12-18T09:24:03;18.70;86.50
19261;DHT22;9764;48.114;11.670;2022-12-18T09:26:35;18.70;86.50
19261;DHT22;9764;48.114;11.670;2022-12-18T09:29:05;18.70;86.40
19261;DHT22;9764;48.114;11.670;2022-12-18T09:31:36;18.70;86.40
19261;DHT22;9764;48.114;11.670;2022-12-18T09:34:07;18.70;86.40
19261;DHT22;9764;48.114;11.670;2022-12-18T09:36:35;18.70;86.40
19261;DHT22;9764;48.114;11.670;2022-12-18T09:39:04;18.70;86.30
19261;DHT22;9764;48.114;11.670;2022-12-18T09:41:42;18.70;86.30
19261;DHT22;9764;48.114;11.670;2022-12-18T09:44:20;18.80;86.30
19261;DHT22;9764;48.114;11.670;2022-12-18T09:46:56;18.70;86.30
19261;DHT22;9764;48.114;11.670;2022-12-18T09:49:30;18.70;86.30
19261;DHT22;9764;48.114;11.670;2022-12-18T09:52:02;18.70;86.30
19261;DHT22;9764;48.114;11.670;2022-12-18T09:54:36;18.70;86.30
19261;DHT22;9764;48.114;11.670;2022-12-18T09:57:14;18.70;86.30
19261;DHT22;9764;48.114;11.670;2022-12-18T09:59:47;18.70;86.40
19261;DHT22;9764;48.114;11.670;2022-12-18T10:02:19;18.70;86.30
19261;DHT22;9764;48.114;11.670;2022-12-18T10:04:58;18.70;86.30
19261;DHT22;9764;48.114;11.670;2022-12-18T10:07:36;18.70;86.40
19261;DHT22;9764;48.114;11.670;2022-12-18T10:10:12;18.70;86.30
19261;DHT22;9764;48.114;11.670;2022-12-18T10:12:47;18.70;86.40
19261;DHT22;9764;48.114;11.670;2022-12-18T10:15:26;18.80;86.40
19261;DHT22;9764;48.114;11.670;2022-12-18T10:18:00;18.80;86.40
19261;DHT22;9764;48.114;11.670;2022-12-18T10:20:33;18.80;86.40
19261;DHT22;9764;48.114;11.670;2022-12-18T10:23:10;18.80;86.40
19261;DHT22;9764;48.114;11.670;2022-12-18T10:25:48;18.80;86.40
19261;DHT22;9764;48.114;11.670;2022-12-18T10:28:19;18.80;86.30
19261;DHT22;9764;48.114;11.670;2022-12-18T10:30:49;18.80;86.40
19261;DHT22;9764;48.114;11.670;2022-12-18T10:33:19;18.80;86.40
19261;DHT22;9764;48.114;11.670;2022-12-18T10:35:52;18.80;86.40
19261;DHT22;9764;48.114;11.670;2022-12-18T10:38:23;18.80;86.40
19261;DHT22;9764;48.114;11.670;2022-12-18T10:40:53;18.80;86.40
19261;DHT22;9764;48.114;11.670;2022-12-18T10:43:25;18.80;86.40
19261;DHT22;9764;48.114;11.670;2022-12-18T10:46:05;18.90;86.50
19261;DHT22;9764;48.114;11.670;2022-12-18T10:48:41;18.90;86.50
19261;DHT22;9764;48.114;11.670;2022-12-18T10:51:20;18.80;86.40
19261;DHT22;9764;48.114;11.670;2022-12-18T10:53:56;18.90;86.60
19261;DHT22;9764;48.114;11.670;2022-12-18T10:56:27;18.90;86.60
19261;DHT22;9764;48.114;11.670;2022-12-18T10:58:58;18.80;86.50
19261;DHT22;9764;48.114;11.670;2022-12-18T11:01:28;18.80;86.50
19261;DHT22;9764;48.114;11.670;2022-12-18T11:04:01;18.80;86.50
19261;DHT22;9764;48.114;11.670;2022-12-18T11:06:33;18.80;86.50
19261;DHT22;9764;48.114;11.670;2022-12-18T11:09:04;18.80;86.60
19261;DHT22;9764;48.114;11.670;2022-12-18T11:11:41;18.80;86.60
19261;DHT22;9764;48.114;11.670;2022-12-18T11:14:19;18.90;86.70
19261;DHT22;9764;48.114;11.670;2022-12-18T11:16:51;18.90;86.70
19261;DHT22;9764;48.114;11.670;2022-12-18T11:19:41;18.80;86.70
19261;DHT22;9764;48.114;11.670;2022-12-18T11:22:19;18.80;86.70
19261;DHT22;9764;48.114;11.670;2022-12-18T11:24:55;18.80;86.70
19261;DHT22;9764;48.114;11.670;2022-12-18T11:27:48;18.90;86.80
19261;DHT22;9764;48.114;11.670;2022-12-18T11:30:22;18.80;86.70
19261;DHT22;9764;48.114;11.670;2022-12-18T11:32:55;18.80;86.80
19261;DHT22;9764;48.114;11.670;2022-12-18T11:35:34;18.80;86.70
19261;DHT22;9764;48.114;11.670;2022-12-18T11:38:06;18.90;86.80
19261;DHT22;9764;48.114;11.670;2022-12-18T11:40:42;18.90;86.90
19261;DHT22;9764;48.114;11.670;2022-12-18T11:43:15;18.90;86.90
19261;DHT22;9764;48.114;11.670;2022-12-18T11:45:50;18.90;86.80
19261;DHT22;9764;48.114;11.670;2022-12-18T11:48:23;18.90;86.90
19261;DHT22;9764;48.114;11.670;2022-12-18T11:50:54;18.90;86.90
19261;DHT22;9764;48.114;11.670;2022-12-18T11:53:25;18.90;86.90
19261;DHT22;9764;48.114;11.670;2022-12-18T11:56:01;18.90;86.90
19261;DHT22;9764;48.114;11.670;2022-12-18T11:58:42;18.90;86.90
19261;DHT22;9764;48.114;11.670;2022-12-18T12:01:23;18.90;87.00
19261;DHT22;9764;48.114;11.670;2022-12-18T12:07:05;19.00;87.80
19261;DHT22;9764;48.114;11.670;2022-12-18T12:09:47;18.90;87.00
19261;DHT22;9764;48.114;11.670;2022-12-18T12:12:28;18.90;87.00
19261;DHT22;9764;48.114;11.670;2022-12-18T12:15:23;18.90;87.00
19261;DHT22;9764;48.114;11.670;2022-12-18T12:17:57;18.90;87.10
19261;DHT22;9764;48.114;11.670;2022-12-18T12:20:41;18.90;87.40
19261;DHT22;9764;48.114;11.670;2022-12-18T12:23:18;18.90;87.10
19261;DHT22;9764;48.114;11.670;2022-12-18T12:25:59;18.90;87.20
19261;DHT22;9764;48.114;11.670;2022-12-18T12:31:38;18.90;87.20
19261;DHT22;9764;48.114;11.670;2022-12-18T12:34:16;18.90;87.20
19261;DHT22;9764;48.114;11.670;2022-12-18T12:37:01;18.90;87.30
19261;DHT22;9764;48.114;11.670;2022-12-18T12:39:35;18.90;87.30
19261;DHT22;9764;48.114;11.670;2022-12-18T12:42:08;18.90;87.30
19261;DHT22;9764;48.114;11.670;2022-12-18T12:45:01;18.90;87.30
19261;DHT22;9764;48.114;11.670;2022-12-18T12:47:38;18.90;87.30
19261;DHT22;9764;48.114;11.670;2022-12-18T12:50:14;18.90;87.30
19261;DHT22;9764;48.114;11.670;2022-12-18T12:52:47;18.90;88.20
19261;DHT22;9764;48.114;11.670;2022-12-18T12:55:20;18.90;87.30
19261;DHT22;9764;48.114;11.670;2022-12-18T12:57:57;18.90;88.10
19261;DHT22;9764;48.114;11.670;2022-12-18T13:00:30;18.90;87.30
19261;DHT22;9764;48.114;11.670;2022-12-18T13:03:10;18.90;87.30
19261;DHT22;9764;48.114;11.670;2022-12-18T13:05:43;18.90;87.30
19261;DHT22;9764;48.114;11.670;2022-12-18T13:08:24;18.90;87.30
19261;DHT22;9764;48.114;11.670;2022-12-18T13:10:57;18.90;87.30
19261;DHT22;9764;48.114;11.670;2022-12-18T13:13:49;18.90;87.30
19261;DHT22;9764;48.114;11.670;2022-12-18T13:16:19;18.90;87.30
19261;DHT22;9764;48.114;11.670;2022-12-18T13:18:49;18.90;87.30
19261;DHT22;9764;48.114;11.670;2022-12-18T13:21:23;18.90;87.30
19261;DHT22;9764;48.114;11.670;2022-12-18T13:23:55;18.90;87.40
19261;DHT22;9764;48.114;11.670;2022-12-18T13:26:33;18.90;87.30
19261;DHT22;9764;48.114;11.670;2022-12-18T13:29:02;18.90;87.30
19261;DHT22;9764;48.114;11.670;2022-12-18T13:32:10;18.90;87.30
19261;DHT22;9764;48.114;11.670;2022-12-18T13:34:49;18.90;87.30
19261;DHT22;9764;48.114;11.670;2022-12-18T13:37:42;18.90;87.30
19261;DHT22;9764;48.114;11.670;2022-12-18T13:43:33;18.90;87.30
19261;DHT22;9764;48.114;11.670;2022-12-18T13:46:19;18.90;87.30
19261;DHT22;9764;48.114;11.670;2022-12-18T13:48:52;18.90;87.30
19261;DHT22;9764;48.114;11.670;2022-12-18T13:51:23;18.90;87.20
19261;DHT22;9764;48.114;11.670;2022-12-18T13:53:54;18.90;87.20
19261;DHT22;9764;48.114;11.670;2022-12-18T13:56:24;18.90;87.20
19261;DHT22;9764;48.114;11.670;2022-12-18T13:59:13;18.90;87.30
19261;DHT22;9764;48.114;11.670;2022-12-18T14:01:44;18.90;87.20
19261;DHT22;9764;48.114;11.670;2022-12-18T14:04:20;18.90;87.20
19261;DHT22;9764;48.114;11.670;2022-12-18T14:06:51;18.90;87.20
19261;DHT22;9764;48.114;11.670;2022-12-18T14:09:25;18.90;87.30
19261;DHT22;9764;48.114;11.670;2022-12-18T14:11:53;18.90;87.30
19261;DHT22;9764;48.114;11.670;2022-12-18T14:14:47;18.90;87.20
19261;DHT22;9764;48.114;11.670;2022-12-18T14:17:19;18.90;87.20
19261;DHT22;9764;48.114;11.670;2022-12-18T14:19:50;18.90;87.20
19261;DHT22;9764;48.114;11.670;2022-12-18T14:22:21;18.90;87.20
19261;DHT22;9764;48.114;11.670;2022-12-18T14:25:13;18.90;87.20
19261;DHT22;9764;48.114;11.670;2022-12-18T14:27:44;18.90;87.20
19261;DHT22;9764;48.114;11.670;2022-12-18T14:30:31;18.90;87.20
19261;DHT22;9764;48.114;11.670;2022-12-18T14:33:02;19.00;87.30
19261;DHT22;9764;48.114;11.670;2022-12-18T14:35:31;19.00;88.10
19261;DHT22;9764;48.114;11.670;2022-12-18T14:38:25;19.00;87.30
19261;DHT22;9764;48.114;11.670;2022-12-18T14:41:03;18.90;87.40
19261;DHT22;9764;48.114;11.670;2022-12-18T14:43:33;18.90;87.40
19261;DHT22;9764;48.114;11.670;2022-12-18T14:46:04;18.90;87.30
19261;DHT22;9764;48.114;11.670;2022-12-18T14:48:38;18.90;87.60
19261;DHT22;9764;48.114;11.670;2022-12-18T14:51:15;18.90;87.60
19261;DHT22;9764;48.114;11.670;2022-12-18T14:53:46;18.90;87.60
19261;DHT22;9764;48.114;11.670;2022-12-18T14:56:22;18.90;87.60
19261;DHT22;9764;48.114;11.670;2022-12-18T14:58:53;18.90;87.60
19261;DHT22;9764;48.114;11.670;2022-12-18T15:01:26;18.90;87.60
19261;DHT22;9764;48.114;11.670;2022-12-18T15:03:56;18.80;87.60
19261;DHT22;9764;48.114;11.670;2022-12-18T15:06:33;18.90;87.50
19261;DHT22;9764;48.114;11.670;2022-12-18T15:09:04;18.90;87.50
19261;DHT22;9764;48.114;11.670;2022-12-18T15:11:35;18.80;87.50
19261;DHT22;9764;48.114;11.670;2022-12-18T15:14:38;18.80;87.60
19261;DHT22;9764;48.114;11.670;2022-12-18T15:17:18;18.80;87.60
19261;DHT22;9764;48.114;11.670;2022-12-18T15:19:47;18.80;87.60
19261;DHT22;9764;48.114;11.670;2022-12-18T15:22:20;18.80;87.60
19261;DHT22;9764;48.114;11.670;2022-12-18T15:24:49;18.80;87.70
19261;DHT22;9764;48.114;11.670;2022-12-18T15:27:24;18.80;87.60
19261;DHT22;9764;48.114;11.670;2022-12-18T15:30:21;18.80;87.70
19261;DHT22;9764;48.114;11.670;2022-12-18T15:32:52;18.80;87.60
19261;DHT22;9764;48.114;11.670;2022-12-18T15:35:23;18.80;87.70
19261;DHT22;9764;48.114;11.670;2022-12-18T15:37:52;18.80;87.60
19261;DHT22;9764;48.114;11.670;2022-12-18T15:40:22;18.80;87.50
19261;DHT22;9764;48.114;11.670;2022-12-18T15:42:53;18.80;87.60
19261;DHT22;9764;48.114;11.670;2022-12-18T15:45:39;18.80;88.40
19261;DHT22;9764;48.114;11.670;2022-12-18T15:48:18;18.80;87.70
19261;DHT22;9764;48.114;11.670;2022-12-18T15:50:48;18.70;87.60
19261;DHT22;9764;48.114;11.670;2022-12-18T15:53:17;18.70;87.70
19261;DHT22;9764;48.114;11.670;2022-12-18T15:55:46;18.70;87.70
19261;DHT22;9764;48.114;11.670;2022-12-18T15:58:32;18.70;87.70
19261;DHT22;9764;48.114;11.670;2022-12-18T16:01:01;18.80;87.70
19261;DHT22;9764;48.114;11.670;2022-12-18T16:03:31;18.80;87.70
19261;DHT22;9764;48.114;11.670;2022-12-18T16:06:00;18.80;87.80
19261;DHT22;9764;48.114;11.670;2022-12-18T16:08:30;18.70;87.80
19261;DHT22;9764;48.114;11.670;2022-12-18T16:10:59;18.70;87.90
19261;DHT22;9764;48.114;11.670;2022-12-18T16:13:27;18.70;87.90